Tuesday, September 2, 2014, 2:43 AM EDT

KUNV, State College, University Park Airport

Location: State College, PA, United States Lat: 40.85
Local Time: 2:43 AM EDT ( 6:43 GMT) Lon: -77.85
Time Zone: US/Eastern Elev: 1240 ft

Show me the last for .
Show Decoded

2014-09-02 02:15 METAR KUNV 020615Z AUTO 19003KT 10SM SCT100 21/20 A2997 RMK AO2 T02110199 =
2014-09-02 01:55 METAR KUNV 020555Z AUTO 20003KT 10SM CLR 21/20 A2997 RMK AO2 T02100200 10245
                 20210 =
2014-09-02 01:35 METAR KUNV 020535Z AUTO 00000KT 10SM SCT095 22/20 A2997 RMK AO2 T02150201 =
2014-09-02 01:15 METAR KUNV 020515Z AUTO 23006KT 10SM CLR 21/20 A2997 RMK AO2 T02130201 =
2014-09-02 00:55 METAR KUNV 020455Z AUTO 23006KT 10SM SCT070 SCT100 BKN120 22/20 A2997 RMK AO2
                 T02160203 =
2014-09-02 00:35 METAR KUNV 020435Z AUTO 25006KT 7SM SCT070 SCT100 BKN120 22/21 A2998 RMK AO2
                 T02190208 =
2014-09-02 00:15 METAR KUNV 020415Z AUTO 00000KT 10SM SCT050 SCT070 SCT080 22/21 A2998 RMK AO2
                 T02220207 =
2014-09-01 23:55 METAR KUNV 020355Z AUTO 00000KT 7SM SCT055 SCT065 BKN080 22/21 A2998 RMK AO2
                 T02150205 402660196 =
2014-09-01 23:35 METAR KUNV 020335Z AUTO 22003KT 7SM SCT055 BKN080 22/21 A2999 RMK AO2 LTG DSNT
                 NW T02160207 =
2014-09-01 23:15 METAR KUNV 020315Z AUTO 23005KT 10SM SCT055 SCT070 SCT090 22/21 A2999 RMK AO2
                 T02240210 =
2014-09-01 22:55 METAR KUNV 020255Z AUTO 23003KT 10SM CLR 22/21 A2999 RMK AO2 T02210210 =
2014-09-01 22:35 METAR KUNV 020235Z AUTO 00000KT 10SM SCT070 SCT085 23/22 A2999 RMK AO2 T02260216
                 =
2014-09-01 22:15 METAR KUNV 020215Z AUTO 00000KT 10SM SCT070 OVC085 23/22 A2999 RMK AO2 T02330217
                 =
2014-09-01 21:55 METAR KUNV 020155Z AUTO 24003KT 10SM BKN085 23/22 A2999 RMK AO2 T02330216 =
2014-09-01 20:53 METAR KUNV 020053Z 25005KT 10SM SCT070 BKN085 24/22 A2998 =
2014-09-01 19:53 METAR KUNV 012353Z 22004KT 10SM BKN110 25/22 A2996 =
2014-09-01 17:53 METAR KUNV 012153Z 19003KT 10SM FEW020 SCT060 SCT085 27/22 A2997 =
2014-09-01 16:53 METAR KUNV 012053Z 20003KT 10SM SCT020 SCT027 BKN045 26/22 A2997 =
2014-09-01 15:53 METAR KUNV 011953Z 21003KT 8SM SCT010 BKN030 25/22 A2999 =
2014-09-01 14:53 METAR KUNV 011853Z 21006KT 5SM -RA BKN030 OVC035 23/21 A3001 =
2014-09-01 13:53 METAR KUNV 011753Z 00000KT 8SM BKN032 OVC050 25/21 A3002 =
2014-09-01 12:53 METAR KUNV 011653Z 24005KT 8SM BKN040 OVC060 24/21 A3003 =
2014-09-01 11:53 METAR KUNV 011553Z 23006KT 7SM BKN032 OVC038 23/20 A3005 =
2014-09-01 10:53 METAR KUNV 011453Z 00000KT 10SM BKN020 BKN037 OVC060 24/19 A3004 =
2014-09-01 09:53 METAR KUNV 011353Z 00000KT 10SM BKN026 BKN034 23/21 A3005 =
2014-09-01 08:53 METAR KUNV 011253Z 00000KT 10SM BKN027 22/20 A3005 =
2014-09-01 07:53 METAR KUNV 011153Z 00000KT 10SM BKN027 21/20 A3006 =
2014-09-01 06:53 METAR KUNV 011053Z 00000KT 7SM SCT019 BKN027 20/19 A3005 =
2014-09-01 05:53 METAR KUNV 010953Z 00000KT 10SM SCT019 OVC026 20/20 A3005 =
2014-09-01 05:35 METAR KUNV 010935Z AUTO 00000KT 10SM SCT018 OVC026 20/20 A3004 RMK AO2 T02030197
                 =
2014-09-01 05:15 METAR KUNV 010915Z AUTO 00000KT 10SM OVC024 21/20 A3004 RMK AO2 T02060197 =
2014-09-01 04:55 METAR KUNV 010855Z AUTO 00000KT 10SM OVC026 20/20 A3004 RMK AO2 T02040196 =
2014-09-01 04:35 METAR KUNV 010835Z AUTO 23004KT 10SM OVC021 21/20 A3003 RMK AO2 T02070198 =
2014-09-01 04:15 METAR KUNV 010815Z AUTO 00000KT 10SM OVC021 20/20 A3003 RMK AO2 T02040198 =
2014-09-01 03:55 METAR KUNV 010755Z AUTO 00000KT 10SM OVC021 21/20 A3004 RMK AO2 LTG DSNT SW
                 T02050197 =
2014-09-01 03:35 METAR KUNV 010735Z AUTO 00000KT 10SM BKN021 OVC070 21/20 A3003 RMK AO2 T02060196
                 =
2014-09-01 03:15 METAR KUNV 010715Z AUTO 00000KT 10SM SCT026 OVC070 21/20 A3003 RMK AO2 T02060196
                 =
2014-09-01 02:55 METAR KUNV 010655Z AUTO 00000KT 7SM BKN026 OVC065 21/20 A3003 RMK AO2 T02050197
                 =

Support USWX by starting your Amazon purchase here.